Time;durP1;ratioP1;P1;durP2;ratioP2;P2;SDS_P1;SDS_P2;PMS_P1;PMS_P2;Temp;Humidity;BMP_temperature;BMP_pressure;BME280_temperature;BME280_humidity;BME280_pressure;Samples;Min_cycle;Max_cycle;Signal;HPM_P1;HPM_P2
2022/09/15 00:01:20;;;;;;;1999.90;999.90;;;;;;;-144.65;100.00;64500.88;5017176;28;20100;-73
2022/09/15 00:03:46;;;;;;;1999.90;999.90;;;;;;;-144.65;100.00;64500.88;5017233;28;20037;-73
2022/09/15 00:06:12;;;;;;;1999.90;999.90;;;;;;;-144.65;100.00;64500.88;5017170;28;20117;-72
2022/09/15 00:08:38;;;;;;;1999.90;999.90;;;;;;;-144.65;100.00;64500.88;5017097;28;20049;-72
2022/09/15 00:11:15;;;;;;;1999.90;999.90;;;;;;;-144.65;100.00;64500.88;5017357;28;20026;-72
2022/09/15 00:13:40;;;;;;;1999.90;999.90;;;;;;;-144.65;100.00;64500.88;5017150;28;20034;-72
2022/09/15 00:16:07;;;;;;;1999.90;999.90;;;;;;;-144.65;100.00;64500.88;5017213;28;20559;-73
2022/09/15 00:18:34;;;;;;;1999.90;999.90;;;;;;;-144.65;100.00;64500.88;5017225;28;20421;-72
2022/09/15 00:21:04;;;;;;;1999.90;999.90;;;;;;;-144.65;100.00;64500.88;5017239;28;21843;-71
2022/09/15 00:23:30;;;;;;;1999.90;999.90;;;;;;;-144.65;100.00;64500.88;5017382;28;20030;-72
2022/09/15 00:25:55;;;;;;;1999.90;999.90;;;;;;;-144.65;100.00;64500.88;5017505;28;20032;-72
2022/09/15 00:28:21;;;;;;;1999.90;999.90;;;;;;;-144.65;100.00;64500.88;5017137;28;20044;-72
2022/09/15 00:30:52;;;;;;;1999.90;999.90;;;;;;;-144.65;100.00;64500.88;5016967;28;20030;-72
2022/09/15 00:33:18;;;;;;;1999.90;999.90;;;;;;;-144.65;100.00;64500.88;5017282;28;20390;-72
2022/09/15 00:35:46;;;;;;;1999.90;999.90;;;;;;;-144.65;100.00;64500.88;5017647;28;20405;-72
2022/09/15 00:38:13;;;;;;;1999.90;999.90;;;;;;;-144.65;100.00;64500.88;5017458;28;20084;-72
2022/09/15 00:40:50;;;;;;;1999.90;999.90;;;;;;;-144.65;100.00;64500.88;5017211;28;20043;-72
2022/09/15 00:43:17;;;;;;;1999.90;999.90;;;;;;;-144.65;100.00;64500.88;5017187;28;20037;-72
2022/09/15 00:45:43;;;;;;;1999.90;999.90;;;;;;;-144.65;100.00;64500.88;5016755;28;20532;-72
2022/09/15 00:48:14;;;;;;;1999.90;999.90;;;;;;;-144.65;100.00;64500.88;5016836;28;20044;-72
2022/09/15 00:50:42;;;;;;;1999.90;999.90;;;;;;;-144.65;100.00;64500.88;5017041;28;20080;-73
2022/09/15 00:53:09;;;;;;;1999.90;999.90;;;;;;;-144.65;100.00;64500.88;4999128;28;20437;-72
2022/09/15 00:55:41;;;;;;;1999.90;999.90;;;;;;;-144.65;100.00;64500.88;5017364;28;20076;-72
2022/09/15 00:58:11;;;;;;;1999.90;999.90;;;;;;;-144.65;100.00;64500.88;5016834;28;20025;-72
2022/09/15 01:00:49;;;;;;;1999.90;999.90;;;;;;;-144.65;100.00;64500.88;5016806;28;20033;-72
2022/09/15 01:03:14;;;;;;;1999.90;999.90;;;;;;;-144.65;100.00;64500.88;5016811;28;20038;-72
2022/09/15 01:05:45;;;;;;;1999.90;999.90;;;;;;;-144.65;100.00;64500.88;5016930;28;20502;-72
2022/09/15 01:08:33;;;;;;;1999.90;999.90;;;;;;;-144.65;100.00;64500.88;5016796;28;20114;-72
2022/09/15 01:10:59;;;;;;;1999.90;999.90;;;;;;;-144.65;100.00;64500.88;5013173;28;20034;-72
2022/09/15 01:13:25;;;;;;;1999.90;999.90;;;;;;;-144.65;100.00;64500.88;5013266;28;20088;-72
2022/09/15 01:16:19;;;;;;;1999.90;999.90;;;;;;;-144.65;100.00;64500.88;5013739;28;20025;-73
2022/09/15 01:19:00;;;;;;;1999.90;999.90;;;;;;;-144.65;100.00;64500.88;5013641;28;20041;-72
2022/09/15 01:21:39;;;;;;;1999.90;999.90;;;;;;;-144.65;100.00;64500.88;5013440;28;20521;-72
2022/09/15 01:24:40;;;;;;;1999.90;999.90;;;;;;;-144.65;100.00;64500.88;5013644;28;20034;-72
2022/09/15 01:27:17;;;;;;;1999.90;999.90;;;;;;;-144.65;100.00;64500.88;5014070;28;20435;-72
2022/09/15 01:30:07;;;;;;;1999.90;999.90;;;;;;;-144.65;100.00;64500.88;5013318;28;20080;-72
2022/09/15 01:35:50;;;;;;;1999.90;999.90;;;;;;;-144.65;100.00;64500.88;5013063;28;20103;-72
2022/09/15 01:38:33;;;;;;;1999.90;999.90;;;;;;;-144.65;100.00;64500.88;5013124;28;20038;-72
2022/09/15 01:41:10;;;;;;;1999.90;999.90;;;;;;;-144.65;100.00;64500.88;5013222;28;20034;-72
2022/09/15 01:43:42;;;;;;;1999.90;999.90;;;;;;;-144.65;100.00;64500.88;4995692;28;20442;-72
2022/09/15 01:46:09;;;;;;;1999.90;999.90;;;;;;;-144.65;100.00;64500.88;5013229;28;20037;-72
2022/09/15 01:48:35;;;;;;;1999.90;999.90;;;;;;;-144.65;100.00;64500.88;5012976;28;20040;-73
2022/09/15 01:51:02;;;;;;;1999.90;999.90;;;;;;;-144.65;100.00;64500.88;5012858;28;20026;-72
2022/09/15 01:53:28;;;;;;;1999.90;999.90;;;;;;;-144.65;100.00;64500.88;5012764;28;20037;-72
2022/09/15 01:56:09;;;;;;;1999.90;999.90;;;;;;;-144.65;100.00;64500.88;5013210;28;20034;-72
2022/09/15 01:58:37;;;;;;;1999.90;999.90;;;;;;;-144.65;100.00;64500.88;5012850;28;20038;-72
2022/09/15 02:01:10;;;;;;;1999.90;999.90;;;;;;;-144.65;100.00;64500.88;5012665;28;20459;-72
2022/09/15 02:03:48;;;;;;;1999.90;999.90;;;;;;;-144.65;100.00;64500.88;5012771;28;20471;-72
2022/09/15 02:06:30;;;;;;;1999.90;999.90;;;;;;;-144.65;100.00;64500.88;5012743;28;20391;-72
2022/09/15 02:09:01;;;;;;;1999.90;999.90;;;;;;;-144.65;100.00;64500.88;5006779;28;20057;-72
2022/09/15 02:11:29;;;;;;;1999.90;999.90;;;;;;;-144.65;100.00;64500.88;5005348;28;20506;-72
2022/09/15 02:14:16;;;;;;;1999.90;999.90;;;;;;;-144.65;100.00;64500.88;5012575;28;20121;-72
2022/09/15 02:16:45;;;;;;;1999.90;999.90;;;;;;;-144.65;100.00;64500.88;4996069;28;20026;-72
2022/09/15 02:19:32;;;;;;;1999.90;999.90;;;;;;;-144.65;100.00;64500.88;4994002;28;20486;-72
2022/09/15 02:22:22;;;;;;;1999.90;999.90;;;;;;;-144.65;100.00;64500.88;4992378;28;20069;-72
2022/09/15 02:24:55;;;;;;;1999.90;999.90;;;;;;;-144.65;100.00;64500.88;4992518;28;20498;-72
2022/09/15 02:27:24;;;;;;;1999.90;999.90;;;;;;;-144.65;100.00;64500.88;5002935;28;20022;-72
2022/09/15 02:29:52;;;;;;;1999.90;999.90;;;;;;;-144.65;100.00;64500.88;5012144;28;20497;-72
2022/09/15 02:32:22;;;;;;;1999.90;999.90;;;;;;;-144.65;100.00;64500.88;4994121;28;20030;-72
2022/09/15 02:34:50;;;;;;;1999.90;999.90;;;;;;;-144.65;100.00;64500.88;5011756;28;20478;-72
2022/09/15 02:37:19;;;;;;;1999.90;999.90;;;;;;;-144.65;100.00;64500.88;5011934;28;20146;-72
2022/09/15 02:39:50;;;;;;;1999.90;999.90;;;;;;;-144.65;100.00;64500.88;5011873;28;20076;-72
2022/09/15 02:42:26;;;;;;;1999.90;999.90;;;;;;;-144.65;100.00;64500.88;5011854;28;20032;-72
2022/09/15 02:44:52;;;;;;;1999.90;999.90;;;;;;;-144.65;100.00;64500.88;5011669;28;20030;-72
2022/09/15 02:47:18;;;;;;;1999.90;999.90;;;;;;;-144.65;100.00;64500.88;5011233;28;20041;-72
2022/09/15 02:49:43;;;;;;;1999.90;999.90;;;;;;;-144.65;100.00;64500.88;5010944;28;20038;-72
2022/09/15 02:52:08;;;;;;;1999.90;999.90;;;;;;;-144.65;100.00;64500.88;5011125;28;20486;-73
2022/09/15 02:54:34;;;;;;;1999.90;999.90;;;;;;;-144.65;100.00;64500.88;5011508;28;20048;-72
2022/09/15 02:56:59;;;;;;;1999.90;999.90;;;;;;;-144.65;100.00;64500.88;5011834;28;20041;-72
2022/09/15 02:59:25;;;;;;;1999.90;999.90;;;;;;;-144.65;100.00;64500.88;5011338;28;20057;-72
2022/09/15 03:01:51;;;;;;;1999.90;999.90;;;;;;;-144.65;100.00;64500.88;5011393;28;20032;-73
2022/09/15 03:04:16;;;;;;;1999.90;999.90;;;;;;;-144.65;100.00;64500.88;5011317;28;20598;-72
2022/09/15 03:06:42;;;;;;;1999.90;999.90;;;;;;;-144.65;100.00;64500.88;5011393;28;20073;-72
2022/09/15 03:09:08;;;;;;;1999.90;999.90;;;;;;;-144.65;100.00;64500.88;5011292;28;20045;-71
2022/09/15 03:11:35;;;;;;;1999.90;999.90;;;;;;;-144.65;100.00;64500.88;5011362;28;20414;-73
2022/09/15 03:14:03;;;;;;;1999.90;999.90;;;;;;;-144.65;100.00;64500.88;5011287;28;20036;-73
2022/09/15 03:16:31;;;;;;;1999.90;999.90;;;;;;;-144.65;100.00;64500.88;5011372;28;20368;-73
2022/09/15 03:18:58;;;;;;;1999.90;999.90;;;;;;;-144.65;100.00;64500.88;5012646;28;20032;-72
2022/09/15 03:21:24;;;;;;;1999.90;999.90;;;;;;;-144.65;100.00;64500.88;5010895;28;20392;-73
2022/09/15 03:23:49;;;;;;;1999.90;999.90;;;;;;;-144.65;100.00;64500.88;5011067;28;20474;-72
2022/09/15 03:26:14;;;;;;;1999.90;999.90;;;;;;;-144.65;100.00;64500.88;5011553;28;20026;-73
2022/09/15 03:28:40;;;;;;;1999.90;999.90;;;;;;;-144.65;100.00;64500.88;5010722;28;20022;-72
2022/09/15 03:31:07;;;;;;;1999.90;999.90;;;;;;;-144.65;100.00;64500.88;5011180;28;20442;-72
2022/09/15 03:33:32;;;;;;;1999.90;999.90;;;;;;;-144.65;100.00;64500.88;5010636;28;20120;-72
2022/09/15 03:35:58;;;;;;;1999.90;999.90;;;;;;;-144.65;100.00;64500.88;5011031;28;20188;-72
2022/09/15 03:38:24;;;;;;;1999.90;999.90;;;;;;;-144.65;100.00;64500.88;5011085;28;20052;-72
2022/09/15 03:41:08;;;;;;;1999.90;999.90;;;;;;;-144.65;100.00;64500.88;5011043;28;20513;-72
2022/09/15 03:43:35;;;;;;;1999.90;999.90;;;;;;;-144.65;100.00;64500.88;5011011;28;20032;-72
2022/09/15 03:46:01;;;;;;;1999.90;999.90;;;;;;;-144.65;100.00;64500.88;5011942;28;20060;-73
2022/09/15 03:48:28;;;;;;;1999.90;999.90;;;;;;;-144.65;100.00;64500.88;5011036;28;20070;-73
2022/09/15 03:50:54;;;;;;;1999.90;999.90;;;;;;;-144.65;100.00;64500.88;5011005;28;20053;-73
2022/09/15 03:53:20;;;;;;;1999.90;999.90;;;;;;;-144.65;100.00;64500.88;5010936;28;20033;-73
2022/09/15 03:55:47;;;;;;;1999.90;999.90;;;;;;;-144.65;100.00;64500.88;5008212;28;20040;-73
2022/09/15 03:58:13;;;;;;;1999.90;999.90;;;;;;;-144.65;100.00;64500.88;5000030;28;20379;-73
2022/09/15 04:00:39;;;;;;;1999.90;999.90;;;;;;;-144.65;100.00;64500.88;5010616;28;20034;-74
2022/09/15 04:03:05;;;;;;;1999.90;999.90;;;;;;;-144.65;100.00;64500.88;4995613;28;20069;-73
2022/09/15 04:05:31;;;;;;;1999.90;999.90;;;;;;;-144.65;100.00;64500.88;4991080;28;20030;-72
2022/09/15 04:07:56;;;;;;;1999.90;999.90;;;;;;;-144.65;100.00;64500.88;4991308;28;20030;-73
2022/09/15 04:10:23;;;;;;;1999.90;999.90;;;;;;;-144.65;100.00;64500.88;4990747;28;20414;-73
2022/09/15 04:12:50;;;;;;;1999.90;999.90;;;;;;;-144.65;100.00;64500.88;4991019;28;20026;-73
2022/09/15 04:15:15;;;;;;;1999.90;999.90;;;;;;;-144.65;100.00;64500.88;5006055;28;20030;-73
2022/09/15 04:17:40;;;;;;;1999.90;999.90;;;;;;;-144.65;100.00;64500.88;5010602;28;20026;-73
2022/09/15 04:20:07;;;;;;;1999.90;999.90;;;;;;;-144.65;100.00;64500.88;5010580;28;20459;-73
2022/09/15 04:22:33;;;;;;;1999.90;999.90;;;;;;;-144.65;100.00;64500.88;4992283;28;20423;-73
2022/09/15 04:24:58;;;;;;;1999.90;999.90;;;;;;;-144.65;100.00;64500.88;5010724;28;20463;-73
2022/09/15 04:27:23;;;;;;;1999.90;999.90;;;;;;;-144.65;100.00;64500.88;5011225;28;20028;-74
2022/09/15 04:29:52;;;;;;;1999.90;999.90;;;;;;;-144.65;100.00;64500.88;5011339;28;20033;-73
2022/09/15 04:32:19;;;;;;;1999.90;999.90;;;;;;;-144.65;100.00;64500.88;5010876;28;20061;-73
2022/09/15 04:34:44;;;;;;;1999.90;999.90;;;;;;;-144.65;100.00;64500.88;5011072;28;20022;-73
2022/09/15 04:37:10;;;;;;;1999.90;999.90;;;;;;;-144.65;100.00;64500.88;5010964;28;20046;-74
2022/09/15 04:39:37;;;;;;;1999.90;999.90;;;;;;;-144.65;100.00;64500.88;5011368;28;20108;-73
2022/09/15 04:42:04;;;;;;;1999.90;999.90;;;;;;;-144.65;100.00;64500.88;5011745;28;20029;-73
2022/09/15 04:44:30;;;;;;;1999.90;999.90;;;;;;;-144.65;100.00;64500.88;5010965;28;20025;-73
2022/09/15 04:46:56;;;;;;;1999.90;999.90;;;;;;;-144.65;100.00;64500.88;5014404;28;20034;-73
2022/09/15 04:49:21;;;;;;;1999.90;999.90;;;;;;;-144.65;100.00;64500.88;5014662;28;20115;-77
2022/09/15 04:51:46;;;;;;;1999.90;999.90;;;;;;;-144.65;100.00;64500.88;4996785;28;20022;-74
2022/09/15 04:54:12;;;;;;;1999.90;999.90;;;;;;;-144.65;100.00;64500.88;5012501;28;20040;-75
2022/09/15 04:56:37;;;;;;;1999.90;999.90;;;;;;;-144.65;100.00;64500.88;5014163;28;20116;-75
2022/09/15 04:59:03;;;;;;;1999.90;999.90;;;;;;;-144.65;100.00;64500.88;5013718;28;20025;-76
2022/09/15 05:01:30;;;;;;;1999.90;999.90;;;;;;;-144.65;100.00;64500.88;5008031;28;20057;-75
2022/09/15 05:03:56;;;;;;;1999.90;999.90;;;;;;;-144.65;100.00;64500.88;5003892;28;20045;-75
2022/09/15 05:06:25;;;;;;;1999.90;999.90;;;;;;;-144.65;100.00;64500.88;4994122;28;20023;-76
2022/09/15 05:08:56;;;;;;;1999.90;999.90;;;;;;;-144.65;100.00;64500.88;4995919;28;20045;-75
2022/09/15 05:11:22;;;;;;;1999.90;999.90;;;;;;;-144.65;100.00;64500.88;4996534;28;20537;-75
2022/09/15 05:13:48;;;;;;;1999.90;999.90;;;;;;;-144.65;100.00;64500.88;4994481;28;20030;-75
2022/09/15 05:16:17;;;;;;;1999.90;999.90;;;;;;;-144.65;100.00;64500.88;4976673;28;20064;-76
2022/09/15 05:18:44;;;;;;;1999.90;999.90;;;;;;;-144.65;100.00;64500.88;4977100;28;20398;-76
2022/09/15 05:21:12;;;;;;;1999.90;999.90;;;;;;;-144.65;100.00;64500.88;5014820;28;20034;-78
2022/09/15 05:23:38;;;;;;;1999.90;999.90;;;;;;;-144.65;100.00;64500.88;5014562;28;20394;-74
2022/09/15 05:26:10;;;;;;;1999.90;999.90;;;;;;;-144.65;100.00;64500.88;5018397;28;20052;-73
2022/09/15 05:28:37;;;;;;;1999.90;999.90;;;;;;;-144.65;100.00;64500.88;5013639;28;20390;-76
2022/09/15 05:31:08;;;;;;;1999.90;999.90;;;;;;;-144.65;100.00;64500.88;5013594;28;20029;-74
2022/09/15 05:33:33;;;;;;;1999.90;999.90;;;;;;;-144.65;100.00;64500.88;5013122;28;20076;-76
2022/09/15 05:36:02;;;;;;;1999.90;999.90;;;;;;;-144.65;100.00;64500.88;5013197;28;20074;-75
2022/09/15 05:38:29;;;;;;;1999.90;999.90;;;;;;;-144.65;100.00;64500.88;5013122;28;20486;-75
2022/09/15 05:41:01;;;;;;;1999.90;999.90;;;;;;;-144.65;100.00;64500.88;5012912;28;20018;-73
2022/09/15 05:43:29;;;;;;;1999.90;999.90;;;;;;;-144.65;100.00;64500.88;5012534;28;20028;-75
2022/09/15 05:45:55;;;;;;;1999.90;999.90;;;;;;;-144.65;100.00;64500.88;5012773;28;20041;-75
2022/09/15 05:48:20;;;;;;;1999.90;999.90;;;;;;;-144.65;100.00;64500.88;5012389;28;20034;-73
2022/09/15 05:50:51;;;;;;;1999.90;999.90;;;;;;;-144.65;100.00;64500.88;5012677;28;20068;-75
2022/09/15 05:53:16;;;;;;;1999.90;999.90;;;;;;;-144.65;100.00;64500.88;5012996;28;20064;-76
2022/09/15 05:55:42;;;;;;;1999.90;999.90;;;;;;;-144.65;100.00;64500.88;5010525;28;20466;-74
2022/09/15 05:58:08;;;;;;;1999.90;999.90;;;;;;;-144.65;100.00;64500.88;4993625;28;20036;-74
2022/09/15 06:00:33;;;;;;;1999.90;999.90;;;;;;;-144.65;100.00;64500.88;4995231;28;20029;-73
2022/09/15 06:02:59;;;;;;;1999.90;999.90;;;;;;;-144.65;100.00;64500.88;5008269;28;20065;-74
2022/09/15 06:05:24;;;;;;;1999.90;999.90;;;;;;;-144.65;100.00;64500.88;5010263;28;20045;-74
2022/09/15 06:07:53;;;;;;;1999.90;999.90;;;;;;;-144.65;100.00;64500.88;5009225;28;20121;-74
2022/09/15 06:10:21;;;;;;;1999.90;999.90;;;;;;;-144.65;100.00;64500.88;5010350;28;20494;-74
2022/09/15 06:12:47;;;;;;;1999.90;999.90;;;;;;;-144.65;100.00;64500.88;5001610;28;20108;-74
2022/09/15 06:15:13;;;;;;;1999.90;999.90;;;;;;;-144.65;100.00;64500.88;4993739;28;20116;-75
2022/09/15 06:17:38;;;;;;;1999.90;999.90;;;;;;;-144.65;100.00;64500.88;5011937;28;20117;-75
2022/09/15 06:20:05;;;;;;;1999.90;999.90;;;;;;;-144.65;100.00;64500.88;5014979;28;20029;-74
2022/09/15 06:22:31;;;;;;;1999.90;999.90;;;;;;;-144.65;100.00;64500.88;5014580;28;20014;-74
2022/09/15 06:24:57;;;;;;;1999.90;999.90;;;;;;;-144.65;100.00;64500.88;5022004;28;20021;-74
2022/09/15 06:27:22;;;;;;;1999.90;999.90;;;;;;;-144.65;100.00;64500.88;4998783;28;20413;-75
2022/09/15 06:29:48;;;;;;;1999.90;999.90;;;;;;;-144.65;100.00;64500.88;5017090;28;20470;-75
2022/09/15 06:32:13;;;;;;;1999.90;999.90;;;;;;;-144.65;100.00;64500.88;5016046;28;20038;-75
2022/09/15 06:34:38;;;;;;;1999.90;999.90;;;;;;;-144.65;100.00;64500.88;5018305;28;20018;-75
2022/09/15 06:37:04;;;;;;;1999.90;999.90;;;;;;;-144.65;100.00;64500.88;5010934;28;20083;-76
2022/09/15 06:39:29;;;;;;;1999.90;999.90;;;;;;;-144.65;100.00;64500.88;5019204;28;20068;-75
2022/09/15 06:41:55;;;;;;;1999.90;999.90;;;;;;;-144.65;100.00;64500.88;5018946;28;20044;-75
2022/09/15 06:44:20;;;;;;;1999.90;999.90;;;;;;;-144.65;100.00;64500.88;5016750;28;20022;-75
2022/09/15 06:46:46;;;;;;;1999.90;999.90;;;;;;;-144.65;100.00;64500.88;5014763;28;20037;-75
2022/09/15 06:49:11;;;;;;;1999.90;999.90;;;;;;;-144.65;100.00;64500.88;5017807;28;20116;-75
2022/09/15 06:51:37;;;;;;;1999.90;999.90;;;;;;;-144.65;100.00;64500.88;5000600;28;20096;-73
2022/09/15 06:54:03;;;;;;;1999.90;999.90;;;;;;;-144.65;100.00;64500.88;4998526;28;20463;-74
2022/09/15 06:56:28;;;;;;;1999.90;999.90;;;;;;;-144.65;100.00;64500.88;5000574;28;20168;-73
2022/09/15 06:58:58;;;;;;;1999.90;999.90;;;;;;;-144.65;100.00;64500.88;4999953;28;20514;-75
2022/09/15 07:01:30;;;;;;;1999.90;999.90;;;;;;;-144.65;100.00;64500.88;4997703;28;20034;-75
2022/09/15 07:03:56;;;;;;;1999.90;999.90;;;;;;;-144.65;100.00;64500.88;5004867;28;20025;-74
2022/09/15 07:06:22;;;;;;;1999.90;999.90;;;;;;;-144.65;100.00;64500.88;5008988;28;20156;-74
2022/09/15 07:08:49;;;;;;;1999.90;999.90;;;;;;;-144.65;100.00;64500.88;5008723;28;20116;-76
2022/09/15 07:11:15;;;;;;;1999.90;999.90;;;;;;;-144.65;100.00;64500.88;5006497;28;20045;-74
2022/09/15 07:13:41;;;;;;;1999.90;999.90;;;;;;;-144.65;100.00;64500.88;5006801;28;20029;-75
2022/09/15 07:16:08;;;;;;;1999.90;999.90;;;;;;;-144.65;100.00;64500.88;5010378;28;20080;-75
2022/09/15 07:18:34;;;;;;;1999.90;999.90;;;;;;;-144.65;100.00;64500.88;5009491;28;20104;-75
2022/09/15 07:21:02;;;;;;;1999.90;999.90;;;;;;;-144.65;100.00;64500.88;5016539;28;20109;-75
2022/09/15 07:23:28;;;;;;;1999.90;999.90;;;;;;;-144.65;100.00;64500.88;5009410;28;20022;-75
2022/09/15 07:26:17;;;;;;;1999.90;999.90;;;;;;;-144.65;100.00;64500.88;5010254;28;20387;-75
2022/09/15 07:28:48;;;;;;;1999.90;999.90;;;;;;;-144.65;100.00;64500.88;5010360;28;20044;-75
2022/09/15 07:31:16;;;;;;;1999.90;999.90;;;;;;;-144.65;100.00;64500.88;5010686;28;20022;-75
2022/09/15 07:33:42;;;;;;;1999.90;999.90;;;;;;;-144.65;100.00;64500.88;5010872;28;20117;-76
2022/09/15 07:36:09;;;;;;;1999.90;999.90;;;;;;;-144.65;100.00;64500.88;5010691;28;20054;-76
2022/09/15 07:38:38;;;;;;;1999.90;999.90;;;;;;;-144.65;100.00;64500.88;5010478;28;20061;-75
2022/09/15 07:41:06;;;;;;;1999.90;999.90;;;;;;;-144.65;100.00;64500.88;5010341;28;20473;-75
2022/09/15 07:43:31;;;;;;;1999.90;999.90;;;;;;;-144.65;100.00;64500.88;5010042;28;20029;-74
2022/09/15 07:45:58;;;;;;;1999.90;999.90;;;;;;;-144.65;100.00;64500.88;5010174;28;20026;-75
2022/09/15 07:48:23;;;;;;;1999.90;999.90;;;;;;;-144.65;100.00;64500.88;5010493;28;20030;-74
2022/09/15 07:50:49;;;;;;;1999.90;999.90;;;;;;;-144.65;100.00;64500.88;5010410;28;20075;-75
2022/09/15 07:53:14;;;;;;;1999.90;999.90;;;;;;;-144.65;100.00;64500.88;4992138;28;20395;-75
2022/09/15 07:55:40;;;;;;;1999.90;999.90;;;;;;;-144.65;100.00;64500.88;5007526;28;20157;-75
2022/09/15 07:58:05;;;;;;;1999.90;999.90;;;;;;;-144.65;100.00;64500.88;5010071;28;20467;-75
2022/09/15 08:00:30;;;;;;;1999.90;999.90;;;;;;;-144.65;100.00;64500.88;5010184;28;20034;-75
2022/09/15 08:02:56;;;;;;;1999.90;999.90;;;;;;;-144.65;100.00;64500.88;5010232;28;20022;-75
2022/09/15 08:05:26;;;;;;;1999.90;999.90;;;;;;;-144.65;100.00;64500.88;5010964;28;20036;-74
2022/09/15 08:07:54;;;;;;;1999.90;999.90;;;;;;;-144.65;100.00;64500.88;5010532;28;20034;-75
2022/09/15 08:10:24;;;;;;;1999.90;999.90;;;;;;;-144.65;100.00;64500.88;5010919;28;20022;-74
2022/09/15 08:12:50;;;;;;;1999.90;999.90;;;;;;;-144.65;100.00;64500.88;5010891;28;20034;-74
2022/09/15 08:15:16;;;;;;;1999.90;999.90;;;;;;;-144.65;100.00;64500.88;5010793;28;20036;-75
2022/09/15 08:17:41;;;;;;;1999.90;999.90;;;;;;;-144.65;100.00;64500.88;5010767;28;20021;-75
2022/09/15 08:20:07;;;;;;;1999.90;999.90;;;;;;;-144.65;100.00;64500.88;5012981;28;20022;-75
2022/09/15 08:22:32;;;;;;;1999.90;999.90;;;;;;;-144.65;100.00;64500.88;5014589;28;20029;-74
2022/09/15 08:24:57;;;;;;;1999.90;999.90;;;;;;;-144.65;100.00;64500.88;4997107;28;20026;-75
2022/09/15 08:27:23;;;;;;;1999.90;999.90;;;;;;;-144.65;100.00;64500.88;5014392;28;20028;-75
2022/09/15 08:29:48;;;;;;;1999.90;999.90;;;;;;;-144.65;100.00;64500.88;5014534;28;20108;-74
2022/09/15 08:32:14;;;;;;;1999.90;999.90;;;;;;;-144.65;100.00;64500.88;5014851;28;20061;-75
2022/09/15 08:34:39;;;;;;;1999.90;999.90;;;;;;;-144.65;100.00;64500.88;5015798;28;20113;-74
2022/09/15 08:37:04;;;;;;;1999.90;999.90;;;;;;;-144.65;100.00;64500.88;5016074;28;20041;-73
2022/09/15 08:39:30;;;;;;;1999.90;999.90;;;;;;;-144.65;100.00;64500.88;5015694;28;20034;-74
2022/09/15 08:41:56;;;;;;;1999.90;999.90;;;;;;;-144.65;100.00;64500.88;5015534;28;20034;-75
2022/09/15 08:44:45;;;;;;;1999.90;999.90;;;;;;;-144.65;100.00;64500.88;5014800;28;20033;-75
2022/09/15 08:47:18;;;;;;;1999.90;999.90;;;;;;;-144.65;100.00;64500.88;5014069;28;20033;-74
2022/09/15 08:49:43;;;;;;;1999.90;999.90;;;;;;;-144.65;100.00;64500.88;5007598;28;20026;-74
2022/09/15 08:52:24;;;;;;;1999.90;999.90;;;;;;;-144.65;100.00;64500.88;4976873;28;20093;-76
2022/09/15 08:54:52;;;;;;;1999.90;999.90;;;;;;;-144.65;100.00;64500.88;4976273;28;20296;-74
2022/09/15 08:57:20;;;;;;;1999.90;999.90;;;;;;;-144.65;100.00;64500.88;4993905;28;20080;-75
2022/09/15 08:59:45;;;;;;;1999.90;999.90;;;;;;;-144.65;100.00;64500.88;4993919;28;20054;-76
2022/09/15 09:02:11;;;;;;;1999.90;999.90;;;;;;;-144.65;100.00;64500.88;4994076;28;20061;-75
2022/09/15 09:04:36;;;;;;;1999.90;999.90;;;;;;;-144.65;100.00;64500.88;4994189;28;20482;-75
2022/09/15 09:07:21;;;;;;;1999.90;999.90;;;;;;;-144.65;100.00;64500.88;4994023;28;20340;-74
2022/09/15 09:10:18;;;;;;;1999.90;999.90;;;;;;;-144.65;100.00;64500.88;4993545;28;20280;-75
2022/09/15 09:12:52;;;;;;;1999.90;999.90;;;;;;;-144.65;100.00;64500.88;4995787;28;20088;-75
2022/09/15 09:15:57;;;;;;;1999.90;999.90;;;;;;;-144.65;100.00;64500.88;5013323;28;20132;-75
2022/09/15 09:18:22;;;;;;;1999.90;999.90;;;;;;;-144.65;100.00;64500.88;5012547;28;20049;-75
2022/09/15 09:21:10;;;;;;;1999.90;999.90;;;;;;;-144.65;100.00;64500.88;5013105;28;20030;-75
2022/09/15 09:23:45;;;;;;;1999.90;999.90;;;;;;;-144.65;100.00;64500.88;4987680;28;20030;-76
2022/09/15 09:26:11;;;;;;;;;;;;;;;-144.65;100.00;64500.88;5013714;28;20034;-75
2022/09/15 09:29:06;;;;;;;1999.90;999.90;;;;;;;-144.65;100.00;64500.88;5013012;28;19913;-75
2022/09/15 09:31:34;;;;;;;1999.90;999.90;;;;;;;-144.65;100.00;64500.88;5011892;28;20055;-75
2022/09/15 09:34:25;;;;;;;1999.90;999.90;;;;;;;-144.65;100.00;64500.88;5012964;28;20034;-75
2022/09/15 09:36:58;;;;;;;1999.90;999.90;;;;;;;-144.65;100.00;64500.88;5012640;28;20077;-74
2022/09/15 09:39:25;;;;;;;1999.90;999.90;;;;;;;-144.65;100.00;64500.88;5012705;28;20030;-75
2022/09/15 09:41:50;;;;;;;1999.90;999.90;;;;;;;-144.65;100.00;64500.88;5012772;28;20022;-75
2022/09/15 09:44:18;;;;;;;1999.90;999.90;;;;;;;-144.65;100.00;64500.88;5000449;28;20037;-75
2022/09/15 09:46:45;;;;;;;1999.90;999.90;;;;;;;-144.65;100.00;64500.88;4992887;28;20037;-75
2022/09/15 09:49:22;;;;;;;1999.90;999.90;;;;;;;-144.65;100.00;64500.88;4993200;28;20022;-75
2022/09/15 09:51:55;;;;;;;1999.90;999.90;;;;;;;-144.65;100.00;64500.88;4992914;28;20011;-75
2022/09/15 09:54:23;;;;;;;1999.90;999.90;;;;;;;-144.65;100.00;64500.88;4993073;28;20113;-74
2022/09/15 09:56:50;;;;;;;1999.90;999.90;;;;;;;-144.65;100.00;64500.88;4992783;28;20506;-74
2022/09/15 09:59:38;;;;;;;1999.90;999.90;;;;;;;-144.65;100.00;64500.88;4992827;28;20049;-75
2022/09/15 10:02:27;;;;;;;1999.90;999.90;;;;;;;-144.65;100.00;64500.88;4992741;28;20531;-74
2022/09/15 10:05:11;;;;;;;1999.90;999.90;;;;;;;-144.65;100.00;64500.88;4992992;28;20382;-75
2022/09/15 10:07:42;;;;;;;1999.90;999.90;;;;;;;-144.65;100.00;64500.88;4991831;28;20038;-75
2022/09/15 10:10:19;;;;;;;1999.90;999.90;;;;;;;-144.65;100.00;64500.88;4992630;28;20080;-75
2022/09/15 10:12:46;;;;;;;1999.90;999.90;;;;;;;-144.65;100.00;64500.88;4992450;28;20501;-74
2022/09/15 10:15:27;;;;;;;1999.90;999.90;;;;;;;-144.65;100.00;64500.88;4992498;28;20037;-74
2022/09/15 10:17:54;;;;;;;1999.90;999.90;;;;;;;-144.65;100.00;64500.88;4992473;28;20441;-73
2022/09/15 10:20:45;;;;;;;1999.90;999.90;;;;;;;-144.65;100.00;64500.88;4992477;28;20029;-74
2022/09/15 10:23:17;;;;;;;1999.90;999.90;;;;;;;-144.65;100.00;64500.88;4992306;28;20031;-74
2022/09/15 10:25:44;;;;;;;1999.90;999.90;;;;;;;-144.65;100.00;64500.88;4992328;28;20026;-74
2022/09/15 10:28:20;;;;;;;1999.90;999.90;;;;;;;-144.65;100.00;64500.88;4992368;28;20030;-74
2022/09/15 10:31:12;;;;;;;1999.90;999.90;;;;;;;-144.65;100.00;64500.88;4987257;28;20446;-73
2022/09/15 10:33:46;;;;;;;1999.90;999.90;;;;;;;-144.65;100.00;64500.88;5012650;28;21069;-72
2022/09/15 10:36:14;;;;;;;1999.90;999.90;;;;;;;-144.65;100.00;64500.88;5012387;28;20439;-73
2022/09/15 10:38:44;;;;;;;1999.90;999.90;;;;;;;-144.65;100.00;64500.88;4993498;28;20081;-74
2022/09/15 10:41:17;;;;;;;1999.90;999.90;;;;;;;-144.65;100.00;64500.88;4992232;28;20486;-73
2022/09/15 10:44:07;;;;;;;1999.90;999.90;;;;;;;-144.65;100.00;64500.88;4992060;28;20073;-74
2022/09/15 10:46:50;;;;;;;1999.90;999.90;;;;;;;-144.65;100.00;64500.88;4992356;28;20552;-73